Bjerringbro, Denmark
Current Conditions -  °F | °C
As of 11:50 AM on Saturday 25 Oct 2014 (Local Time) from EKKA Reporting Station
Broken Clouds Broken Clouds  
Wind Chill: 55°   Ceiling: 700
Heat Index: 55°   Visibility: 6mi
Dew Point: 55°   Wind: 6mph
Humidity: 100%   Direction: 220°SW
Pressure: 29.91"   Gusts: NA
Location:  56.38°N, 9.66°E
Report Text: EKKA 250950Z AUTO 22005KT 9999NDV BKN007/// BKN051///13/13 Q1013
Loading
Personal Weather Stations






























Interactive Weather Map
Tropical Storm Tracking
New forecast layout! Learn more

10-Day Weather Forecast

Advertisements
Track Severe Weather on mobile